Terminal Aerodrome Forecast
Issued by NWS

Home | Current Version | Previous Version | Text Only | Print | Product List | Glossary On
Versions: 1 2 3 4 5 6 7 8 9 10 11 12 13 14 15 16
000
FTUS41 KPBZ 222331
TAFZZV
TAF
KZZV 222331Z 2300/2324 17010KT P6SM -SHRA OVC060 WS020/19040KT
     FM230200 17011KT P6SM OVC045 WS020/20040KT
     FM230400 18010KT 5SM -SHRA OVC030 WS020/20045KT
     FM230800 21008KT P6SM VCSH OVC040 WS020/21040KT
     FM231200 22012G22KT P6SM VCSH OVC035
     FM231500 22013G25KT P6SM VCSH OVC030=

USA.gov is the U.S. government's official web portal to all federal, state and local government web resources and services.